Monday, October 23, 2017, 1:09 PM EDT
Back to Local

KYNG, Youngstown-warren Reg Airprt

Location: Vienna, OH, United States Lat: 41.25
Local Time: 1:09 PM EDT (17:09 GMT) Lon: -80.667
Time Zone: US/Eastern Elev: 1197 ft

Show me the last for .
Show Decoded

2017-10-23 12:51 METAR KYNG 231651Z 13011G20KT 10SM -RA FEW032 FEW055 BKN100 OVC240 19/13 A2991
                 RMK AO2 RAB45 SLP124 P0000 T01890133 =
2017-10-23 11:51 METAR KYNG 231551Z 12012KT 10SM BKN060 BKN075 OVC240 18/13 A2995 RMK AO2 SLP139
                 T01780133 =
2017-10-23 10:51 METAR KYNG 231451Z 13009KT 10SM OVC047 17/13 A2998 RMK AO2 SLP148 60000
                 T01720128 58018 =
2017-10-23 09:51 METAR KYNG 231351Z 13011KT 10SM BKN046 OVC055 17/12 A3000 RMK AO2 RAB20E29
                 SLP156 P0000 T01670117 =
2017-10-23 08:51 METAR KYNG 231251Z 12011KT 10SM BKN060 OVC075 16/11 A3002 RMK AO2 SLP162
                 T01560106 =
2017-10-23 07:51 METAR KYNG 231151Z 13009KT 10SM BKN065 OVC250 15/11 A3004 RMK AO2 SLP169
                 T01500106 10178 20144 58015 =
2017-10-23 06:51 METAR KYNG 231051Z 12008KT 10SM BKN250 15/10 A3005 RMK AO2 SLP174 T01500100 =
2017-10-23 05:51 METAR KYNG 230951Z 12007KT 10SM BKN250 15/10 A3006 RMK AO2 SLP176 T01500100 =
2017-10-23 04:51 METAR KYNG 230851Z 13007KT 10SM BKN250 16/10 A3008 RMK AO2 SLP181 T01560100
                 58010 =
2017-10-23 03:51 METAR KYNG 230751Z 12008KT 10SM BKN240 15/10 A3010 RMK AO2 SLP187 T01500100 =
2017-10-23 02:51 METAR KYNG 230651Z 14006KT 10SM OVC240 16/10 A3011 RMK AO2 SLP191 T01610100 =
2017-10-23 01:51 METAR KYNG 230551Z 14008KT 10SM FEW140 BKN250 18/09 A3011 RMK AO2 SLP192
                 T01780094 10183 20156 56011 =
2017-10-23 00:51 METAR KYNG 230451Z 14008KT 10SM FEW140 BKN240 17/11 A3012 RMK AO2 SLP196
                 T01720106 402440083 =
2017-10-22 23:51 METAR KYNG 230351Z 13007KT 10SM FEW140 OVC230 18/11 A3014 RMK AO2 SLP201
                 T01780106 =
2017-10-22 22:51 METAR KYNG 230251Z 12008KT 10SM OVC250 18/10 A3015 RMK AO2 SLP205 T01780100
                 56007 =
2017-10-22 21:51 METAR KYNG 230151Z 12008KT 10SM FEW140 OVC210 17/10 A3016 RMK AO2 SLP209
                 T01670100 =
2017-10-22 20:51 METAR KYNG 230051Z 13006KT 10SM FEW140 OVC230 17/09 A3016 RMK AO2 SLP212
                 T01720094 =
2017-10-22 19:51 METAR KYNG 222351Z 13006KT 10SM BKN240 16/10 A3017 RMK AO2 SLP217 T01560100
                 10244 20150 50002 =
2017-10-22 18:51 METAR KYNG 222251Z 14004KT 10SM FEW140 SCT170 BKN240 19/09 A3018 RMK AO2 SLP218
                 T01940089 =
2017-10-22 17:51 METAR KYNG 222151Z 17006KT 10SM SCT140 BKN170 BKN240 23/09 A3017 RMK AO2 SLP213
                 T02280094 =
2017-10-22 16:51 METAR KYNG 222051Z VRB05KT 10SM SCT170 BKN240 24/11 A3016 RMK AO2 SLP212
                 T02390106 58020 =
2017-10-22 15:51 METAR KYNG 221951Z 16008KT 10SM BKN250 24/11 A3019 RMK AO2 SLP219 T02390106 =
2017-10-22 14:51 METAR KYNG 221851Z VRB06KT 10SM BKN250 24/10 A3020 RMK AO2 SLP224 T02390100 =
2017-10-22 13:51 METAR KYNG 221751Z 16007KT 10SM BKN250 23/12 A3022 RMK AO2 SLP230 T02330117
                 10233 20111 58016 =

Support USWX by starting your Amazon purchase here.